Impacts TAF Board INFO
FOR SITUATIONAL AWARENESS. NOT TO BE USED FOR FLIGHT PLANNING PURPOSES.
IDs:

KLGA - New York/La Guardia, NY, US

Issued at 0357 UTC 21 Jan 2018
Updated at 0442 UTC 21 Jan 2018
Potential Impact None Slight Moderate High
Time0351Z 21/05Z 21/06Z 21/07Z 21/08Z 21/09Z 21/10Z 21/11Z 21/12Z 21/13Z 21/14Z 21/15Z 21/16Z 21/17Z>>
Type OBS PRVL PRVL PRVL PRVL PRVL PRVL PRVL PRVL PRVL PRVL PRVL PRVL PRVL
VIS 10 >6 >6 >6 >6 >6 >6 >6 >6 >6 >6 >6 >6 >6
CIG -- -- -- -- -- -- -- -- -- -- -- -- -- --
Cover SCT SCT SCT SCT SCT SCT SCT SCT FEW FEW FEW FEW FEW FEW
FltCat VFR VFR VFR VFR VFR VFR VFR VFR VFR VFR VFR VFR VFR VFR
WX -- -- -- -- -- -- -- -- -- -- -- -- -- --
WDir 250 260 280 280 280 280 280 280 320 320 320 320 320 320
WSpd 4 7 6 6 6 6 6 6 6 6 6 6 6 6
WGst -- -- -- -- -- -- -- -- -- -- -- -- -- --

Raw TAF
KLGA 210357Z 2104/2206 26007KT P6SM SCT250
  FM210600 28006KT P6SM SCT250
  FM211200 32006KT P6SM FEW250
  FM212200 28005KT P6SM BKN040
  FM220300 23005KT P6SM BKN025


Raw METAR
KLGA 210351Z 25004KT 10SM SCT250 08/M03 A3003 RMK AO2 SLP167 T00781028
KLGA 210251Z 27007KT 10SM SCT250 08/M03 A3001 RMK AO2 SLP163 T00831028 51015
KLGA 210151Z 29012G19KT 10SM SCT250 08/M03 A3000 RMK AO2 SLP160 T00831028

METAR Board
Radar Display
Forecast Discussion

FOR SITUATIONAL AWARENESS. NOT TO BE USED FOR FLIGHT PLANNING PURPOSES.